createdAt,value
2022-11-26T00:00:45.354Z,7.51
2022-11-26T00:01:45.662Z,7.58
2022-11-26T00:02:45.802Z,7.64
2022-11-26T00:03:45.579Z,7.64
2022-11-26T00:04:45.319Z,7.55
2022-11-26T00:05:45.304Z,7.58
2022-11-26T00:06:45.326Z,7.61
2022-11-26T00:07:45.506Z,7.51
2022-11-26T00:08:48.328Z,7.59
2022-11-26T00:09:45.324Z,7.59
2022-11-26T00:10:45.307Z,7.61
2022-11-26T00:11:45.412Z,7.58
2022-11-26T00:12:45.313Z,7.56
2022-11-26T00:13:45.320Z,7.48
2022-11-26T00:14:45.339Z,7.48
2022-11-26T00:15:45.349Z,7.53
2022-11-26T00:16:45.705Z,7.5
2022-11-26T00:17:45.314Z,7.62
2022-11-26T00:18:45.339Z,7.59
2022-11-26T00:19:48.159Z,7.56
2022-11-26T00:20:45.341Z,7.51
2022-11-26T00:21:45.367Z,7.59
2022-11-26T00:22:45.317Z,7.56
2022-11-26T00:23:45.346Z,7.55
2022-11-26T00:24:48.438Z,7.58
2022-11-26T00:25:45.344Z,7.44
2022-11-26T00:26:45.379Z,7.44
2022-11-26T00:27:45.362Z,7.56
2022-11-26T00:28:45.333Z,7.51
2022-11-26T00:29:45.326Z,7.51
2022-11-26T00:30:48.273Z,7.55
2022-11-26T00:31:45.542Z,7.46
2022-11-26T00:32:45.352Z,7.53
2022-11-26T00:33:45.367Z,7.51
2022-11-26T00:34:45.346Z,7.51
2022-11-26T00:35:48.247Z,7.51
2022-11-26T00:36:45.370Z,7.5
2022-11-26T00:37:45.334Z,7.46
2022-11-26T00:38:45.363Z,7.41
2022-11-26T00:39:45.355Z,7.51
2022-11-26T00:40:45.347Z,7.48
2022-11-26T00:41:48.376Z,7.44
2022-11-26T00:42:45.359Z,7.44
2022-11-26T00:43:45.368Z,7.51
2022-11-26T00:44:45.607Z,7.41
2022-11-26T00:45:45.557Z,7.47
2022-11-26T00:46:48.843Z,7.37
2022-11-26T00:47:45.366Z,7.44
2022-11-26T00:48:45.422Z,7.37
2022-11-26T00:49:45.362Z,7.36
2022-11-26T00:50:45.368Z,7.4
2022-11-26T00:51:45.377Z,7.43
2022-11-26T00:52:45.375Z,7.43
2022-11-26T00:53:45.390Z,7.51
2022-11-26T00:54:45.360Z,7.48
2022-11-26T00:55:45.369Z,7.56
2022-11-26T00:56:45.385Z,7.53
2022-11-26T00:57:48.128Z,7.56
2022-11-26T00:58:45.376Z,7.51
2022-11-26T00:59:45.400Z,7.56
2022-11-26T01:00:45.547Z,7.55
2022-11-26T01:01:45.617Z,7.53
2022-11-26T01:02:45.593Z,7.56
2022-11-26T01:03:45.385Z,7.56
2022-11-26T01:04:45.404Z,7.51
2022-11-26T01:05:45.382Z,7.48
2022-11-26T01:06:45.404Z,7.43
2022-11-26T01:07:45.787Z,7.46
2022-11-26T01:08:45.377Z,7.56
2022-11-26T01:09:45.391Z,7.53
2022-11-26T01:10:45.419Z,7.56
2022-11-26T01:11:47.131Z,7.59
2022-11-26T01:12:45.380Z,7.55
2022-11-26T01:13:45.394Z,7.55
2022-11-26T01:14:45.531Z,7.56
2022-11-26T01:15:45.428Z,7.5
2022-11-26T01:16:45.605Z,7.58
2022-11-26T01:17:45.543Z,7.59
2022-11-26T01:18:45.440Z,7.61
2022-11-26T01:19:45.413Z,7.61
2022-11-26T01:20:45.421Z,7.56
2022-11-26T01:21:45.435Z,7.56
2022-11-26T01:22:45.418Z,7.56
2022-11-26T01:23:45.428Z,7.47
2022-11-26T01:24:51.161Z,7.58
2022-11-26T01:25:45.417Z,7.59
2022-11-26T01:26:45.413Z,7.58
2022-11-26T01:27:45.399Z,7.59
2022-11-26T01:28:45.392Z,7.62
2022-11-26T01:29:48.432Z,7.53
2022-11-26T01:30:45.398Z,7.58
2022-11-26T01:31:45.727Z,7.58
2022-11-26T01:32:45.419Z,7.61
2022-11-26T01:33:45.454Z,7.67
2022-11-26T01:34:45.732Z,7.51
2022-11-26T01:35:45.460Z,7.62
2022-11-26T01:36:45.509Z,7.61
2022-11-26T01:37:45.439Z,7.56
2022-11-26T01:38:45.417Z,7.58
2022-11-26T01:39:45.482Z,7.53
2022-11-26T01:40:48.190Z,7.5
2022-11-26T01:41:45.461Z,7.58
2022-11-26T01:42:45.488Z,7.56
2022-11-26T01:43:45.459Z,7.59
2022-11-26T01:44:45.926Z,7.61
2022-11-26T01:45:45.661Z,7.48
2022-11-26T01:46:45.504Z,7.61
2022-11-26T01:47:45.479Z,7.46
2022-11-26T01:48:45.436Z,7.48
2022-11-26T01:49:45.436Z,7.48
2022-11-26T01:50:45.555Z,7.5
2022-11-26T01:51:48.287Z,7.48
2022-11-26T01:52:45.439Z,7.53
2022-11-26T01:53:45.458Z,7.56
2022-11-26T01:54:45.605Z,7.56
2022-11-26T01:55:45.553Z,7.55
2022-11-26T01:56:45.479Z,7.58
2022-11-26T01:57:45.453Z,7.53
2022-11-26T01:58:45.573Z,7.62
2022-11-26T01:59:45.493Z,7.53
2022-11-26T02:00:45.950Z,7.53
2022-11-26T02:01:45.956Z,7.58
2022-11-26T02:02:48.540Z,7.67
2022-11-26T02:03:45.483Z,7.59
2022-11-26T02:04:45.636Z,7.61
2022-11-26T02:05:45.483Z,7.56
2022-11-26T02:06:45.721Z,7.61
2022-11-26T02:07:45.798Z,7.64
2022-11-26T02:08:45.491Z,7.72
2022-11-26T02:09:45.483Z,7.7
2022-11-26T02:10:45.474Z,7.7
2022-11-26T02:11:45.462Z,7.72
2022-11-26T02:12:45.485Z,7.67
2022-11-26T02:13:48.477Z,7.75
2022-11-26T02:14:45.783Z,7.62
2022-11-26T02:15:45.481Z,7.74
2022-11-26T02:16:45.640Z,7.7
2022-11-26T02:17:45.580Z,7.69
2022-11-26T02:18:45.507Z,7.72
2022-11-26T02:19:45.497Z,7.67
2022-11-26T02:20:45.526Z,7.7
2022-11-26T02:21:45.507Z,7.75
2022-11-26T02:22:45.564Z,7.75
2022-11-26T02:23:45.482Z,7.69
2022-11-26T02:24:48.839Z,7.61
2022-11-26T02:25:45.494Z,7.56
2022-11-26T02:26:45.506Z,7.64
2022-11-26T02:27:45.499Z,7.58
2022-11-26T02:28:45.491Z,7.58
2022-11-26T02:29:45.467Z,7.58
2022-11-26T02:30:45.483Z,7.51
2022-11-26T02:31:45.805Z,7.43
2022-11-26T02:32:45.525Z,7.56
2022-11-26T02:33:45.482Z,7.58
2022-11-26T02:34:46.629Z,7.48
2022-11-26T02:35:48.525Z,7.58
2022-11-26T02:36:45.625Z,7.53
2022-11-26T02:37:48.609Z,7.55
2022-11-26T02:38:45.545Z,7.55
2022-11-26T02:39:45.520Z,7.64
2022-11-26T02:40:45.489Z,7.61
2022-11-26T02:41:45.498Z,7.66
2022-11-26T02:42:45.519Z,7.66
2022-11-26T02:43:45.510Z,7.59
2022-11-26T02:44:45.639Z,7.59
2022-11-26T02:45:45.717Z,7.67
2022-11-26T02:46:48.560Z,7.72
2022-11-26T02:47:45.524Z,7.59
2022-11-26T02:48:45.518Z,7.66
2022-11-26T02:49:45.551Z,7.64
2022-11-26T02:50:45.578Z,7.62
2022-11-26T02:51:48.291Z,7.66
2022-11-26T02:52:45.558Z,7.75
2022-11-26T02:53:45.546Z,7.8
2022-11-26T02:54:45.922Z,7.81
2022-11-26T02:55:45.533Z,7.8
2022-11-26T02:56:45.526Z,7.83
2022-11-26T02:57:48.563Z,7.85
2022-11-26T02:58:45.535Z,7.85
2022-11-26T02:59:45.511Z,7.88
2022-11-26T03:00:45.722Z,7.9
2022-11-26T03:01:45.545Z,7.81
2022-11-26T03:02:46.842Z,7.93
2022-11-26T03:03:45.814Z,7.85
2022-11-26T03:04:45.992Z,7.96
2022-11-26T03:05:45.522Z,7.91
2022-11-26T03:06:45.561Z,7.84
2022-11-26T03:07:46.160Z,7.84
2022-11-26T03:08:48.380Z,7.91
2022-11-26T03:09:45.582Z,7.88
2022-11-26T03:10:45.666Z,7.99
2022-11-26T03:11:45.661Z,7.99
2022-11-26T03:12:45.794Z,7.93
2022-11-26T03:13:48.460Z,7.93
2022-11-26T03:14:45.570Z,7.85
2022-11-26T03:15:45.543Z,7.9
2022-11-26T03:16:45.884Z,8.06
2022-11-26T03:17:45.577Z,7.88
2022-11-26T03:18:45.584Z,7.95
2022-11-26T03:19:45.557Z,7.99
2022-11-26T03:20:45.563Z,7.84
2022-11-26T03:21:45.558Z,7.93
2022-11-26T03:22:45.623Z,7.93
2022-11-26T03:23:45.554Z,7.81
2022-11-26T03:24:48.397Z,7.88
2022-11-26T03:25:45.550Z,7.81
2022-11-26T03:26:45.618Z,7.87
2022-11-26T03:27:45.592Z,7.77
2022-11-26T03:28:45.559Z,7.85
2022-11-26T03:29:45.575Z,7.84
2022-11-26T03:30:45.571Z,7.85
2022-11-26T03:31:45.928Z,7.78
2022-11-26T03:32:45.593Z,7.83
2022-11-26T03:33:45.572Z,7.74
2022-11-26T03:34:45.800Z,7.77
2022-11-26T03:35:45.597Z,7.81
2022-11-26T03:36:45.571Z,7.78
2022-11-26T03:37:45.594Z,7.74
2022-11-26T03:38:45.643Z,7.64
2022-11-26T03:39:45.581Z,7.67
2022-11-26T03:40:48.439Z,7.66
2022-11-26T03:41:45.580Z,7.62
2022-11-26T03:42:45.682Z,7.53
2022-11-26T03:43:45.608Z,7.53
2022-11-26T03:44:45.690Z,7.55
2022-11-26T03:45:45.724Z,7.58
2022-11-26T03:46:45.603Z,7.48
2022-11-26T03:47:45.609Z,7.59
2022-11-26T03:48:45.580Z,7.56
2022-11-26T03:49:45.604Z,7.48
2022-11-26T03:50:45.586Z,7.58
2022-11-26T03:51:45.581Z,7.46
2022-11-26T03:52:45.615Z,7.44
2022-11-26T03:53:45.583Z,7.53
2022-11-26T03:54:45.655Z,7.51
2022-11-26T03:55:45.602Z,7.58
2022-11-26T03:56:48.769Z,7.59
2022-11-26T03:57:45.632Z,7.51
2022-11-26T03:58:45.701Z,7.51
2022-11-26T03:59:45.612Z,7.43
2022-11-26T04:00:45.611Z,7.5
2022-11-26T04:01:45.930Z,7.55
2022-11-26T04:02:45.929Z,7.55
2022-11-26T04:03:45.619Z,7.5
2022-11-26T04:04:45.801Z,7.4
2022-11-26T04:05:45.630Z,7.47
2022-11-26T04:06:45.629Z,7.41
2022-11-26T04:07:46.120Z,7.44
2022-11-26T04:08:45.612Z,7.51
2022-11-26T04:09:45.630Z,7.46
2022-11-26T04:10:45.632Z,7.53
2022-11-26T04:11:45.624Z,7.47
2022-11-26T04:12:45.649Z,7.47
2022-11-26T04:13:45.638Z,7.41
2022-11-26T04:14:46.267Z,7.36
2022-11-26T04:15:45.621Z,7.37
2022-11-26T04:16:45.841Z,7.48
2022-11-26T04:17:45.655Z,7.43
2022-11-26T04:18:48.629Z,7.43
2022-11-26T04:19:45.612Z,7.43
2022-11-26T04:20:48.782Z,7.53
2022-11-26T04:21:45.666Z,7.44
2022-11-26T04:22:45.671Z,7.37
2022-11-26T04:23:45.642Z,7.4
2022-11-26T04:24:45.883Z,7.47
2022-11-26T04:25:45.636Z,7.44
2022-11-26T04:26:45.686Z,7.55
2022-11-26T04:27:45.674Z,7.56
2022-11-26T04:28:48.394Z,7.56
2022-11-26T04:29:48.567Z,7.55
2022-11-26T04:30:45.710Z,7.56
2022-11-26T04:31:45.985Z,7.58
2022-11-26T04:32:45.673Z,7.58
2022-11-26T04:33:45.647Z,7.58
2022-11-26T04:34:45.787Z,7.58
2022-11-26T04:35:45.650Z,7.66
2022-11-26T04:36:45.642Z,7.72
2022-11-26T04:37:45.704Z,7.7
2022-11-26T04:38:45.647Z,7.67
2022-11-26T04:39:45.655Z,7.69
2022-11-26T04:40:48.763Z,7.69
2022-11-26T04:41:45.672Z,7.7
2022-11-26T04:42:45.716Z,7.7
2022-11-26T04:43:45.667Z,7.74
2022-11-26T04:44:45.681Z,7.69
2022-11-26T04:45:46.307Z,7.75
2022-11-26T04:46:45.691Z,7.81
2022-11-26T04:47:47.844Z,7.81
2022-11-26T04:48:45.691Z,7.75
2022-11-26T04:49:45.677Z,7.7
2022-11-26T04:50:45.839Z,7.78
2022-11-26T04:51:48.721Z,7.84
2022-11-26T04:52:45.741Z,7.84
2022-11-26T04:53:45.676Z,7.83
2022-11-26T04:54:45.825Z,7.91
2022-11-26T04:55:45.674Z,7.93
2022-11-26T04:56:45.682Z,7.9
2022-11-26T04:57:45.723Z,7.87
2022-11-26T04:58:45.708Z,7.95
2022-11-26T04:59:45.686Z,8.02
2022-11-26T05:00:50.342Z,7.9
2022-11-26T05:01:46.072Z,8.01
2022-11-26T05:02:48.767Z,8.08
2022-11-26T05:03:45.682Z,7.99
2022-11-26T05:04:45.816Z,7.95
2022-11-26T05:05:45.673Z,8.01
2022-11-26T05:06:45.711Z,8.01
2022-11-26T05:07:46.015Z,8.05
2022-11-26T05:08:45.703Z,8.02
2022-11-26T05:09:45.697Z,8.03
2022-11-26T05:10:45.704Z,8.03
2022-11-26T05:11:45.734Z,8.02
2022-11-26T05:12:45.714Z,8.02
2022-11-26T05:13:48.856Z,8.01
2022-11-26T05:14:45.731Z,8.02
2022-11-26T05:15:45.699Z,8.05
2022-11-26T05:16:45.903Z,8.13
2022-11-26T05:17:45.726Z,8.06
2022-11-26T05:18:48.576Z,8.08
2022-11-26T05:19:45.706Z,8.13
2022-11-26T05:20:45.715Z,8.13
2022-11-26T05:21:45.714Z,8.05
2022-11-26T05:22:45.694Z,8.03
2022-11-26T05:23:45.727Z,8.08
2022-11-26T05:24:48.666Z,8.03
2022-11-26T05:25:45.727Z,8.06
2022-11-26T05:26:45.721Z,8.06
2022-11-26T05:27:45.735Z,8.06
2022-11-26T05:28:45.760Z,8.09
2022-11-26T05:29:48.800Z,8.03
2022-11-26T05:30:45.718Z,7.99
2022-11-26T05:31:46.051Z,8.01
2022-11-26T05:32:45.719Z,8.05
2022-11-26T05:33:45.826Z,7.95
2022-11-26T05:34:46.109Z,8.01
2022-11-26T05:35:48.553Z,7.95
2022-11-26T05:36:45.561Z,7.91
2022-11-26T05:37:45.770Z,7.96
2022-11-26T05:38:45.744Z,7.96
2022-11-26T05:39:45.741Z,7.98
2022-11-26T05:40:48.516Z,8.05
2022-11-26T05:41:45.737Z,7.96
2022-11-26T05:42:45.751Z,7.98
2022-11-26T05:43:45.767Z,8.01
2022-11-26T05:44:46.069Z,8.03
2022-11-26T05:45:45.993Z,8.02
2022-11-26T05:46:45.755Z,8.02
2022-11-26T05:47:45.744Z,8.01
2022-11-26T05:48:45.765Z,7.99
2022-11-26T05:49:45.778Z,8.05
2022-11-26T05:50:48.987Z,8.03
2022-11-26T05:51:48.761Z,8.06
2022-11-26T05:52:45.770Z,8.06
2022-11-26T05:53:45.789Z,8.03
2022-11-26T05:54:46.086Z,8.08
2022-11-26T05:55:45.770Z,8.05
2022-11-26T05:56:45.769Z,8.11
2022-11-26T05:57:45.757Z,8.06
2022-11-26T05:58:45.798Z,8.06
2022-11-26T05:59:45.771Z,8.06
2022-11-26T06:00:45.756Z,8.01
2022-11-26T06:01:45.859Z,8.06
2022-11-26T06:02:46.510Z,8.03
2022-11-26T06:03:49.138Z,8.13
2022-11-26T06:04:46.180Z,8.09
2022-11-26T06:05:45.777Z,8.2
2022-11-26T06:06:45.795Z,8.13
2022-11-26T06:07:52.044Z,8.03
2022-11-26T06:08:45.783Z,8.13
2022-11-26T06:09:46.147Z,8.06
2022-11-26T06:10:45.783Z,8.06
2022-11-26T06:11:45.810Z,8.18
2022-11-26T06:12:45.792Z,8.09
2022-11-26T06:13:45.813Z,8.14
2022-11-26T06:14:48.887Z,8.14
2022-11-26T06:15:45.769Z,8.13
2022-11-26T06:16:46.020Z,8.06
2022-11-26T06:17:45.804Z,8.13
2022-11-26T06:18:48.577Z,8.16
2022-11-26T06:19:45.774Z,8.17
2022-11-26T06:20:45.780Z,8.17
2022-11-26T06:21:45.812Z,8.17
2022-11-26T06:22:45.801Z,8.17
2022-11-26T06:24:02.066Z,8.24
2022-11-26T06:24:45.813Z,8.16
2022-11-26T06:25:45.776Z,8.2
2022-11-26T06:26:45.792Z,8.18
2022-11-26T06:27:45.806Z,8.05
2022-11-26T06:28:45.833Z,8.21
2022-11-26T06:29:45.789Z,8.14
2022-11-26T06:30:45.813Z,8.14
2022-11-26T06:31:46.005Z,8.17
2022-11-26T06:32:45.818Z,8.14
2022-11-26T06:33:45.839Z,8.2
2022-11-26T06:34:54.984Z,8.14
2022-11-26T06:35:45.817Z,8.23
2022-11-26T06:36:45.815Z,8.14
2022-11-26T06:37:45.673Z,8.11
2022-11-26T06:38:45.877Z,8.24
2022-11-26T06:39:45.839Z,8.24
2022-11-26T06:40:45.829Z,8.16
2022-11-26T06:41:45.655Z,8.2
2022-11-26T06:42:45.644Z,8.14
2022-11-26T06:43:45.854Z,8.14
2022-11-26T06:44:46.097Z,8.14
2022-11-26T06:45:48.825Z,8.11
2022-11-26T06:46:45.844Z,8.17
2022-11-26T06:47:45.848Z,8.24
2022-11-26T06:48:45.673Z,8.06
2022-11-26T06:49:45.939Z,8.16
2022-11-26T06:50:45.674Z,8.14
2022-11-26T06:51:45.829Z,8.23
2022-11-26T06:52:45.838Z,8.17
2022-11-26T06:53:45.863Z,8.2
2022-11-26T06:54:45.927Z,8.16
2022-11-26T06:55:45.828Z,8.17
2022-11-26T06:56:48.893Z,8.14
2022-11-26T06:57:45.835Z,8.2
2022-11-26T06:58:45.885Z,8.18
2022-11-26T06:59:45.855Z,8.31
2022-11-26T07:00:45.847Z,8.2
2022-11-26T07:01:46.144Z,8.17
2022-11-26T07:02:46.177Z,8.09
2022-11-26T07:03:45.861Z,8.16
2022-11-26T07:04:46.124Z,8.08
2022-11-26T07:05:45.869Z,8.06
2022-11-26T07:06:45.877Z,8.05
2022-11-26T07:07:49.221Z,8.03
2022-11-26T07:08:45.870Z,8.11
2022-11-26T07:09:45.904Z,8.09
2022-11-26T07:10:52.058Z,8.06
2022-11-26T07:11:45.861Z,8.08
2022-11-26T07:12:45.893Z,8.09
2022-11-26T07:13:45.873Z,8.08
2022-11-26T07:14:46.305Z,8.13
2022-11-26T07:15:46.031Z,8.08
2022-11-26T07:16:45.993Z,8.08
2022-11-26T07:17:45.906Z,8.06
2022-11-26T07:18:49.363Z,8.09
2022-11-26T07:19:45.715Z,8.05
2022-11-26T07:20:45.873Z,8.03
2022-11-26T07:21:45.903Z,8.08
2022-11-26T07:22:45.865Z,8.09
2022-11-26T07:23:45.887Z,7.93
2022-11-26T07:24:46.185Z,8.01
2022-11-26T07:25:45.901Z,7.85
2022-11-26T07:26:45.919Z,7.84
2022-11-26T07:27:45.924Z,7.78
2022-11-26T07:28:45.934Z,7.91
2022-11-26T07:29:48.965Z,7.78
2022-11-26T07:30:45.903Z,7.75
2022-11-26T07:31:46.092Z,7.81
2022-11-26T07:32:45.730Z,7.77
2022-11-26T07:33:45.923Z,7.72
2022-11-26T07:34:46.169Z,7.72
2022-11-26T07:35:45.902Z,7.66
2022-11-26T07:36:45.900Z,7.67
2022-11-26T07:37:45.928Z,7.61
2022-11-26T07:38:46.075Z,7.7
2022-11-26T07:39:45.894Z,7.7
2022-11-26T07:40:46.943Z,7.74
2022-11-26T07:41:45.915Z,7.81
2022-11-26T07:42:49.193Z,7.87
2022-11-26T07:43:45.914Z,8.02
2022-11-26T07:44:45.902Z,8.09
2022-11-26T07:45:46.449Z,8.21
2022-11-26T07:46:46.112Z,8.28
2022-11-26T07:47:45.888Z,8.42
2022-11-26T07:48:45.938Z,8.61
2022-11-26T07:49:45.919Z,8.81
2022-11-26T07:50:45.903Z,8.99
2022-11-26T07:51:48.981Z,8.96
2022-11-26T07:52:45.917Z,9.13
2022-11-26T07:53:45.799Z,9.34
2022-11-26T07:54:46.110Z,9.45
2022-11-26T07:55:45.919Z,9.33
2022-11-26T07:56:48.697Z,9.11
2022-11-26T07:57:45.909Z,9.16
2022-11-26T07:58:45.982Z,9.15
2022-11-26T07:59:45.916Z,9.15
2022-11-26T08:00:47.876Z,9.19
2022-11-26T08:01:46.244Z,9.12
2022-11-26T08:02:49.047Z,9
2022-11-26T08:03:45.956Z,8.96
2022-11-26T08:04:45.944Z,8.92
2022-11-26T08:05:45.979Z,8.86
2022-11-26T08:06:45.958Z,8.96
2022-11-26T08:07:49.319Z,8.93
2022-11-26T08:08:45.939Z,8.87
2022-11-26T08:09:45.976Z,8.89
2022-11-26T08:10:45.928Z,8.95
2022-11-26T08:11:48.933Z,8.9
2022-11-26T08:12:45.959Z,8.9
2022-11-26T08:13:45.960Z,8.97
2022-11-26T08:14:45.966Z,8.87
2022-11-26T08:15:45.925Z,8.93
2022-11-26T08:16:46.271Z,8.77
2022-11-26T08:17:45.953Z,8.89
2022-11-26T08:18:49.073Z,8.87
2022-11-26T08:19:45.938Z,8.97
2022-11-26T08:20:45.939Z,8.93
2022-11-26T08:21:45.972Z,8.87
2022-11-26T08:22:45.967Z,8.92
2022-11-26T08:23:45.960Z,8.84
2022-11-26T08:24:46.131Z,8.77
2022-11-26T08:26:34.951Z,8.72
2022-11-26T08:26:51.300Z,8.71
2022-11-26T08:27:51.318Z,8.71
2022-11-26T08:28:51.362Z,8.82
2022-11-26T08:29:54.322Z,8.84
2022-11-26T08:30:51.264Z,8.82
2022-11-26T08:31:51.686Z,8.79
2022-11-26T08:32:51.265Z,8.72
2022-11-26T08:33:51.255Z,8.69
2022-11-26T08:34:54.444Z,8.75
2022-11-26T08:36:11.281Z,8.87
2022-11-26T08:36:51.278Z,8.71
2022-11-26T08:37:51.290Z,8.77
2022-11-26T08:38:51.298Z,8.78
2022-11-26T08:39:51.280Z,8.74
2022-11-26T08:40:54.109Z,8.74
2022-11-26T08:41:57.027Z,8.74
2022-11-26T08:42:51.296Z,8.84
2022-11-26T08:44:21.390Z,8.82
2022-11-26T08:44:51.297Z,8.81
2022-11-26T08:45:54.607Z,8.84
2022-11-26T08:46:51.281Z,8.86
2022-11-26T08:47:51.304Z,8.86
2022-11-26T08:48:51.295Z,8.81
2022-11-26T08:49:51.344Z,8.77
2022-11-26T08:50:51.281Z,8.84
2022-11-26T08:51:51.312Z,8.81
2022-11-26T08:52:51.315Z,8.86
2022-11-26T08:53:51.316Z,8.89
2022-11-26T08:54:52.166Z,8.92
2022-11-26T08:56:04.898Z,8.87
2022-11-26T08:56:51.818Z,8.93
2022-11-26T08:57:51.171Z,8.82
2022-11-26T08:58:51.709Z,8.89
2022-11-26T08:59:51.378Z,9
2022-11-26T09:00:51.331Z,8.86
2022-11-26T09:01:51.600Z,8.89
2022-11-26T09:02:51.520Z,8.95
2022-11-26T09:03:51.315Z,8.82
2022-11-26T09:04:51.352Z,8.89
2022-11-26T09:05:51.317Z,8.9
2022-11-26T09:06:51.320Z,8.84
2022-11-26T09:07:54.147Z,8.78
2022-11-26T09:08:51.333Z,8.81
2022-11-26T09:09:51.377Z,8.86
2022-11-26T09:10:51.318Z,8.79
2022-11-26T09:11:51.342Z,8.82
2022-11-26T09:12:51.323Z,8.77
2022-11-26T09:13:51.357Z,8.81
2022-11-26T09:14:51.524Z,8.86
2022-11-26T09:15:51.369Z,8.99
2022-11-26T09:16:51.686Z,8.92
2022-11-26T09:17:51.422Z,9.09
2022-11-26T09:18:54.287Z,9.08
2022-11-26T09:19:51.364Z,8.93
2022-11-26T09:20:57.317Z,9.03
2022-11-26T09:21:51.376Z,9.09
2022-11-26T09:22:51.388Z,9.19
2022-11-26T09:23:51.335Z,9.15
2022-11-26T09:24:51.379Z,9.08
2022-11-26T09:25:51.348Z,9.03
2022-11-26T09:26:51.191Z,9
2022-11-26T09:27:51.347Z,9.05
2022-11-26T09:28:51.466Z,8.96
2022-11-26T09:29:55.379Z,9.08
2022-11-26T09:30:51.604Z,9.05
2022-11-26T09:32:33.814Z,9.12
2022-11-26T09:32:51.926Z,9.12
2022-11-26T09:33:51.376Z,9.03
2022-11-26T09:34:51.513Z,9.12
2022-11-26T09:35:51.382Z,8.97
2022-11-26T09:36:51.358Z,9.08
2022-11-26T09:37:56.110Z,9.09
2022-11-26T09:38:51.363Z,9.12
2022-11-26T09:39:51.397Z,9.03
2022-11-26T09:40:54.384Z,9.08
2022-11-26T09:41:51.370Z,9.02
2022-11-26T09:42:51.383Z,9.09
2022-11-26T09:43:55.736Z,9.05
2022-11-26T09:44:51.389Z,9.05
2022-11-26T09:45:51.571Z,9.15
2022-11-26T09:47:16.212Z,9.15
2022-11-26T09:47:54.395Z,9.05
2022-11-26T09:48:51.515Z,8.92
2022-11-26T09:49:51.430Z,9.09
2022-11-26T09:50:51.382Z,9
2022-11-26T09:51:54.177Z,8.97
2022-11-26T09:52:51.395Z,9.08
2022-11-26T09:53:51.400Z,8.97
2022-11-26T09:54:52.422Z,8.93
2022-11-26T09:55:51.410Z,8.9
2022-11-26T09:56:51.385Z,8.89
2022-11-26T09:57:51.403Z,8.97
2022-11-26T09:58:51.403Z,8.93
2022-11-26T09:59:51.459Z,8.95
2022-11-26T10:00:51.644Z,8.95
2022-11-26T10:01:51.632Z,8.87
2022-11-26T10:02:54.219Z,8.82
2022-11-26T10:03:51.446Z,8.93
2022-11-26T10:04:54.421Z,8.82
2022-11-26T10:05:51.419Z,8.92
2022-11-26T10:06:51.426Z,8.97
2022-11-26T10:07:54.700Z,9.02
2022-11-26T10:08:51.426Z,8.95
2022-11-26T10:09:51.441Z,9
2022-11-26T10:10:51.432Z,8.99
2022-11-26T10:11:51.421Z,9.03
2022-11-26T10:13:22.453Z,8.96
2022-11-26T10:13:54.432Z,9
2022-11-26T10:14:51.453Z,8.96
2022-11-26T10:15:51.432Z,9.12
2022-11-26T10:16:51.675Z,9.05
2022-11-26T10:17:51.470Z,9.03
2022-11-26T10:18:54.485Z,9.08
2022-11-26T10:19:51.470Z,9.05
2022-11-26T10:20:51.452Z,9
2022-11-26T10:22:06.833Z,8.97
2022-11-26T10:22:57.778Z,9.02
2022-11-26T10:23:51.502Z,8.95
2022-11-26T10:24:51.455Z,9.13
2022-11-26T10:25:51.431Z,9.12
2022-11-26T10:26:51.436Z,9.02
2022-11-26T10:27:51.429Z,9.05
2022-11-26T10:28:51.574Z,9.08
2022-11-26T10:29:53.007Z,9.09
2022-11-26T10:30:51.453Z,9.11
2022-11-26T10:31:51.811Z,9.08
2022-11-26T10:32:51.495Z,9.13
2022-11-26T10:33:51.468Z,9
2022-11-26T10:34:51.511Z,9.05
2022-11-26T10:35:51.456Z,8.96
2022-11-26T10:36:51.497Z,9.05
2022-11-26T10:37:51.499Z,8.99
2022-11-26T10:38:51.468Z,9.08
2022-11-26T10:39:59.246Z,9.03
2022-11-26T10:40:51.498Z,9
2022-11-26T10:41:51.451Z,9.05
2022-11-26T10:42:51.471Z,8.97
2022-11-26T10:43:51.546Z,9.05
2022-11-26T10:44:51.504Z,9
2022-11-26T10:45:51.567Z,9.08
2022-11-26T10:46:51.679Z,9.08
2022-11-26T10:47:51.697Z,9.15
2022-11-26T10:48:51.497Z,9.03
2022-11-26T10:49:51.563Z,9.11
2022-11-26T16:56:19.991Z,8.26
2022-11-26T16:56:29.717Z,8.32
2022-11-26T16:57:29.582Z,8.38
2022-11-26T16:58:29.607Z,8.42
2022-11-26T16:59:32.447Z,8.39
2022-11-26T17:00:29.585Z,8.39
2022-11-26T17:01:29.583Z,8.36
2022-11-26T17:02:30.078Z,8.31
2022-11-26T17:03:30.181Z,8.41
2022-11-26T17:04:29.571Z,8.42
2022-11-26T17:05:29.584Z,8.42
2022-11-26T17:06:29.619Z,8.38
2022-11-26T17:07:29.720Z,8.38
2022-11-26T17:08:29.588Z,8.31
2022-11-26T17:09:29.581Z,8.42
2022-11-26T17:10:29.791Z,8.38
2022-11-26T17:11:29.667Z,8.31
2022-11-26T17:12:29.618Z,8.34
2022-11-26T17:13:29.631Z,8.23
2022-11-26T17:14:29.593Z,8.24
2022-11-26T17:15:29.605Z,8.32
2022-11-26T17:16:29.791Z,8.35
2022-11-26T17:17:30.084Z,8.23
2022-11-26T17:18:29.586Z,8.24
2022-11-26T17:19:29.618Z,8.18
2022-11-26T17:20:29.609Z,8.2
2022-11-26T17:21:32.388Z,8.21
2022-11-26T17:22:29.601Z,8.24
2022-11-26T17:23:29.593Z,8.18
2022-11-26T17:24:35.983Z,8.32
2022-11-26T17:25:29.607Z,8.27
2022-11-26T17:26:29.689Z,8.09
2022-11-26T17:27:29.654Z,8.26
2022-11-26T17:28:29.634Z,8.17
2022-11-26T17:29:29.626Z,8.26
2022-11-26T17:30:29.658Z,8.09
2022-11-26T17:31:30.072Z,8.17
2022-11-26T17:32:32.671Z,8.16
2022-11-26T17:33:29.615Z,8.14
2022-11-26T17:34:32.579Z,8.18
2022-11-26T17:35:29.651Z,8.23
2022-11-26T17:36:32.677Z,8.2
2022-11-26T17:37:32.759Z,8.16
2022-11-26T17:38:29.648Z,8.13
2022-11-26T17:39:29.621Z,8.09
2022-11-26T17:40:29.641Z,8.14
2022-11-26T17:41:29.674Z,8.14
2022-11-26T17:42:36.600Z,8.16
2022-11-26T17:43:32.808Z,8.11
2022-11-26T17:44:29.683Z,8.17
2022-11-26T17:45:29.639Z,8.2
2022-11-26T17:46:30.042Z,8.18
2022-11-26T17:47:29.953Z,8.18
2022-11-26T17:48:32.703Z,8.18
2022-11-26T17:49:29.644Z,8.16
2022-11-26T17:50:29.679Z,8.31
2022-11-26T17:51:29.685Z,8.17
2022-11-26T17:52:29.642Z,8.21
2022-11-26T17:53:29.641Z,8.2
2022-11-26T17:54:32.675Z,8.18
2022-11-26T17:55:29.648Z,8.11
2022-11-26T17:56:29.673Z,8.18
2022-11-26T17:57:29.678Z,8.23
2022-11-26T17:58:29.663Z,8.17
2022-11-26T17:59:32.801Z,8.21
2022-11-26T18:00:29.653Z,8.17
2022-11-26T18:01:29.896Z,8.14
2022-11-26T18:02:29.888Z,8.05
2022-11-26T18:03:29.692Z,8.05
2022-11-26T18:04:29.656Z,8.01
2022-11-26T18:05:32.697Z,8.08
2022-11-26T18:06:29.700Z,8.18
2022-11-26T18:07:29.819Z,8.23
2022-11-26T18:08:29.666Z,8.14
2022-11-26T18:09:29.670Z,8.18
2022-11-26T18:10:32.450Z,8.18
2022-11-26T18:11:29.694Z,7.99
2022-11-26T18:12:30.340Z,8.09
2022-11-26T18:13:29.898Z,8.03
2022-11-26T18:14:29.686Z,8.03
2022-11-26T18:15:29.744Z,8.2
2022-11-26T18:16:29.889Z,8.14
2022-11-26T18:17:29.674Z,8.06
2022-11-26T18:18:29.725Z,8.17
2022-11-26T18:19:32.672Z,8.13
2022-11-26T18:20:29.674Z,8.17
2022-11-26T18:21:32.444Z,8.21
2022-11-26T18:22:29.678Z,8.16
2022-11-26T18:23:29.696Z,8.14
2022-11-26T18:24:29.692Z,8.13
2022-11-26T18:25:29.726Z,8.16
2022-11-26T18:26:29.774Z,8.09
2022-11-26T18:27:29.708Z,8.09
2022-11-26T18:28:29.726Z,8.05
2022-11-26T18:29:29.710Z,8.11
2022-11-26T18:30:30.153Z,8.21
2022-11-26T18:31:29.929Z,8.13
2022-11-26T18:32:32.607Z,8.11
2022-11-26T18:33:29.707Z,8.13
2022-11-26T18:34:29.732Z,8.06
2022-11-26T18:35:29.696Z,8.13
2022-11-26T18:36:29.730Z,8.08
2022-11-26T18:37:29.720Z,8.13
2022-11-26T18:38:29.721Z,8.14
2022-11-26T18:39:29.687Z,8.09
2022-11-26T18:40:29.714Z,8.08
2022-11-26T18:41:29.744Z,8.26
2022-11-26T18:42:45.069Z,8.13
2022-11-26T18:43:30.851Z,8.08
2022-11-26T18:44:29.708Z,8.17
2022-11-26T18:45:29.737Z,8.16
2022-11-26T18:46:30.041Z,8.13
2022-11-26T18:47:29.780Z,8.06
2022-11-26T18:48:29.735Z,8.13
2022-11-26T18:49:29.726Z,8.17
2022-11-26T18:50:29.726Z,8.11
2022-11-26T18:51:29.759Z,8.11
2022-11-26T18:52:29.723Z,8.09
2022-11-26T18:53:29.738Z,8.13
2022-11-26T18:54:29.722Z,8.05
2022-11-26T18:55:29.758Z,8.08
2022-11-26T18:56:29.797Z,8.05
2022-11-26T18:57:29.753Z,8.03
2022-11-26T18:58:29.727Z,8.09
2022-11-26T18:59:29.762Z,8.06
2022-11-26T19:00:29.746Z,8.06
2022-11-26T19:01:30.108Z,7.91
2022-11-26T19:02:30.078Z,8.02
2022-11-26T19:03:32.789Z,8.06
2022-11-26T19:04:29.808Z,8.09
2022-11-26T19:05:29.757Z,8.08
2022-11-26T19:06:29.840Z,8.03
2022-11-26T19:07:29.900Z,8.03
2022-11-26T19:08:29.758Z,8.11
2022-11-26T19:09:29.748Z,8.13
2022-11-26T19:10:29.765Z,8.02
2022-11-26T19:11:29.786Z,8.03
2022-11-26T19:12:29.783Z,7.99
2022-11-26T19:13:29.750Z,8.05
2022-11-26T19:14:29.757Z,8.02
2022-11-26T19:15:32.785Z,7.98
2022-11-26T19:16:30.134Z,7.95
2022-11-26T19:17:29.753Z,7.93
2022-11-26T19:18:29.787Z,7.83
2022-11-26T19:19:29.966Z,7.91
2022-11-26T19:20:29.798Z,7.88
2022-11-26T19:21:29.784Z,7.98
2022-11-26T19:22:29.783Z,7.98
2022-11-26T19:23:29.773Z,7.85
2022-11-26T19:24:29.777Z,7.99
2022-11-26T19:25:29.821Z,7.84